sensor_id;sensor_type;location;lat;lon;timestamp;temperature;humidity
41592;DHT22;28026;48.562;14.440;2023-08-24T00:02:22;20.50;99.90
41592;DHT22;28026;48.562;14.440;2023-08-24T00:04:53;20.50;99.90
41592;DHT22;28026;48.562;14.440;2023-08-24T00:07:26;20.50;99.90
41592;DHT22;28026;48.562;14.440;2023-08-24T00:09:58;20.50;99.90
41592;DHT22;28026;48.562;14.440;2023-08-24T00:12:29;20.50;99.90
41592;DHT22;28026;48.562;14.440;2023-08-24T00:15:00;20.50;99.90
41592;DHT22;28026;48.562;14.440;2023-08-24T00:17:33;20.40;99.90
41592;DHT22;28026;48.562;14.440;2023-08-24T00:20:05;20.40;99.90
41592;DHT22;28026;48.562;14.440;2023-08-24T00:22:43;20.20;99.90
41592;DHT22;28026;48.562;14.440;2023-08-24T00:25:14;20.30;99.90
41592;DHT22;28026;48.562;14.440;2023-08-24T00:27:45;20.20;99.90
41592;DHT22;28026;48.562;14.440;2023-08-24T00:30:16;20.10;99.90
41592;DHT22;28026;48.562;14.440;2023-08-24T00:32:47;20.20;99.90
41592;DHT22;28026;48.562;14.440;2023-08-24T00:35:18;20.20;99.90
41592;DHT22;28026;48.562;14.440;2023-08-24T00:37:49;20.10;99.90
41592;DHT22;28026;48.562;14.440;2023-08-24T00:40:21;20.10;99.90
41592;DHT22;28026;48.562;14.440;2023-08-24T00:42:52;20.00;99.90
41592;DHT22;28026;48.562;14.440;2023-08-24T00:45:23;19.90;99.90
41592;DHT22;28026;48.562;14.440;2023-08-24T00:47:54;19.90;99.90
41592;DHT22;28026;48.562;14.440;2023-08-24T00:50:25;19.30;99.90
41592;DHT22;28026;48.562;14.440;2023-08-24T00:52:56;19.20;99.90
41592;DHT22;28026;48.562;14.440;2023-08-24T00:55:27;19.20;99.90
41592;DHT22;28026;48.562;14.440;2023-08-24T00:57:58;19.30;99.90
41592;DHT22;28026;48.562;14.440;2023-08-24T01:00:30;19.40;99.90
41592;DHT22;28026;48.562;14.440;2023-08-24T01:03:02;19.40;99.90
41592;DHT22;28026;48.562;14.440;2023-08-24T01:05:34;19.30;99.90
41592;DHT22;28026;48.562;14.440;2023-08-24T01:08:05;19.20;99.90
41592;DHT22;28026;48.562;14.440;2023-08-24T01:11:00;19.30;99.90
41592;DHT22;28026;48.562;14.440;2023-08-24T01:16:59;19.30;99.90
41592;DHT22;28026;48.562;14.440;2023-08-24T01:19:41;19.40;99.90
41592;DHT22;28026;48.562;14.440;2023-08-24T01:22:33;19.40;99.90
41592;DHT22;28026;48.562;14.440;2023-08-24T01:25:38;19.40;99.90
41592;DHT22;28026;48.562;14.440;2023-08-24T01:28:22;19.30;99.90
41592;DHT22;28026;48.562;14.440;2023-08-24T01:30:54;19.20;99.90
41592;DHT22;28026;48.562;14.440;2023-08-24T01:33:25;19.00;99.90
41592;DHT22;28026;48.562;14.440;2023-08-24T01:35:56;18.90;99.90
41592;DHT22;28026;48.562;14.440;2023-08-24T01:38:28;18.90;99.90
41592;DHT22;28026;48.562;14.440;2023-08-24T01:43:57;19.10;99.90
41592;DHT22;28026;48.562;14.440;2023-08-24T01:46:33;18.90;99.90
41592;DHT22;28026;48.562;14.440;2023-08-24T01:49:06;18.90;99.90
41592;DHT22;28026;48.562;14.440;2023-08-24T01:51:40;18.90;99.90
41592;DHT22;28026;48.562;14.440;2023-08-24T01:54:13;18.90;99.90
41592;DHT22;28026;48.562;14.440;2023-08-24T01:56:44;18.80;99.90
41592;DHT22;28026;48.562;14.440;2023-08-24T01:59:15;18.80;99.90
41592;DHT22;28026;48.562;14.440;2023-08-24T02:01:46;18.90;99.90
41592;DHT22;28026;48.562;14.440;2023-08-24T02:04:17;18.90;99.90
41592;DHT22;28026;48.562;14.440;2023-08-24T02:06:48;18.80;99.90
41592;DHT22;28026;48.562;14.440;2023-08-24T02:09:19;18.80;99.90
41592;DHT22;28026;48.562;14.440;2023-08-24T02:11:50;18.80;99.90
41592;DHT22;28026;48.562;14.440;2023-08-24T02:14:21;18.70;99.90
41592;DHT22;28026;48.562;14.440;2023-08-24T02:16:51;18.70;99.90
41592;DHT22;28026;48.562;14.440;2023-08-24T02:19:22;18.80;99.90
41592;DHT22;28026;48.562;14.440;2023-08-24T02:21:53;18.70;99.90
41592;DHT22;28026;48.562;14.440;2023-08-24T02:24:24;18.70;99.90
41592;DHT22;28026;48.562;14.440;2023-08-24T02:26:55;18.80;99.90
41592;DHT22;28026;48.562;14.440;2023-08-24T02:29:26;18.80;99.90
41592;DHT22;28026;48.562;14.440;2023-08-24T02:31:58;18.80;99.90
41592;DHT22;28026;48.562;14.440;2023-08-24T02:34:29;18.70;99.90
41592;DHT22;28026;48.562;14.440;2023-08-24T02:36:59;18.70;99.90
41592;DHT22;28026;48.562;14.440;2023-08-24T02:39:30;18.60;99.90
41592;DHT22;28026;48.562;14.440;2023-08-24T02:42:01;18.70;99.90
41592;DHT22;28026;48.562;14.440;2023-08-24T02:44:32;18.70;99.90
41592;DHT22;28026;48.562;14.440;2023-08-24T02:47:04;18.60;99.90
41592;DHT22;28026;48.562;14.440;2023-08-24T02:49:35;18.50;99.90
41592;DHT22;28026;48.562;14.440;2023-08-24T02:52:06;18.50;99.90
41592;DHT22;28026;48.562;14.440;2023-08-24T02:54:37;18.50;99.90
41592;DHT22;28026;48.562;14.440;2023-08-24T02:57:08;18.30;99.90
41592;DHT22;28026;48.562;14.440;2023-08-24T02:59:38;18.40;99.90
41592;DHT22;28026;48.562;14.440;2023-08-24T03:02:09;18.40;99.90
41592;DHT22;28026;48.562;14.440;2023-08-24T03:04:40;18.40;99.90
41592;DHT22;28026;48.562;14.440;2023-08-24T03:07:11;18.50;99.90
41592;DHT22;28026;48.562;14.440;2023-08-24T03:09:42;18.50;99.90
41592;DHT22;28026;48.562;14.440;2023-08-24T03:12:13;18.50;99.90
41592;DHT22;28026;48.562;14.440;2023-08-24T03:14:44;18.60;99.90
41592;DHT22;28026;48.562;14.440;2023-08-24T03:17:15;18.50;99.90
41592;DHT22;28026;48.562;14.440;2023-08-24T03:19:45;18.50;99.90
41592;DHT22;28026;48.562;14.440;2023-08-24T03:22:16;18.30;99.90
41592;DHT22;28026;48.562;14.440;2023-08-24T03:24:47;18.20;99.90
41592;DHT22;28026;48.562;14.440;2023-08-24T03:27:18;18.20;99.90
41592;DHT22;28026;48.562;14.440;2023-08-24T03:29:52;18.10;99.90
41592;DHT22;28026;48.562;14.440;2023-08-24T03:32:24;18.10;99.90
41592;DHT22;28026;48.562;14.440;2023-08-24T03:34:59;18.10;99.90
41592;DHT22;28026;48.562;14.440;2023-08-24T03:37:30;18.10;99.90
41592;DHT22;28026;48.562;14.440;2023-08-24T03:40:01;18.10;99.90
41592;DHT22;28026;48.562;14.440;2023-08-24T03:42:34;18.20;99.90
41592;DHT22;28026;48.562;14.440;2023-08-24T03:45:05;18.20;99.90
41592;DHT22;28026;48.562;14.440;2023-08-24T03:47:37;18.10;99.90
41592;DHT22;28026;48.562;14.440;2023-08-24T03:50:08;18.20;99.90
41592;DHT22;28026;48.562;14.440;2023-08-24T03:52:39;18.10;99.90
41592;DHT22;28026;48.562;14.440;2023-08-24T03:55:10;18.10;99.90
41592;DHT22;28026;48.562;14.440;2023-08-24T03:57:41;18.10;99.90
41592;DHT22;28026;48.562;14.440;2023-08-24T04:00:12;17.90;99.90
41592;DHT22;28026;48.562;14.440;2023-08-24T04:02:44;17.90;99.90
41592;DHT22;28026;48.562;14.440;2023-08-24T04:05:16;17.90;99.90
41592;DHT22;28026;48.562;14.440;2023-08-24T04:07:47;18.00;99.90
41592;DHT22;28026;48.562;14.440;2023-08-24T04:10:18;18.00;99.90
41592;DHT22;28026;48.562;14.440;2023-08-24T04:12:49;18.00;99.90
41592;DHT22;28026;48.562;14.440;2023-08-24T04:15:20;18.10;99.90
41592;DHT22;28026;48.562;14.440;2023-08-24T04:17:51;18.10;99.90
41592;DHT22;28026;48.562;14.440;2023-08-24T04:20:21;18.20;99.90
41592;DHT22;28026;48.562;14.440;2023-08-24T04:22:53;18.20;99.90
41592;DHT22;28026;48.562;14.440;2023-08-24T04:25:25;18.20;99.90
41592;DHT22;28026;48.562;14.440;2023-08-24T04:27:56;18.30;99.90
41592;DHT22;28026;48.562;14.440;2023-08-24T04:30:27;18.30;99.90
41592;DHT22;28026;48.562;14.440;2023-08-24T04:32:58;18.30;99.90
41592;DHT22;28026;48.562;14.440;2023-08-24T04:35:34;18.30;99.90
41592;DHT22;28026;48.562;14.440;2023-08-24T04:38:06;18.30;99.90
41592;DHT22;28026;48.562;14.440;2023-08-24T04:40:53;18.30;99.90
41592;DHT22;28026;48.562;14.440;2023-08-24T04:43:26;18.30;99.90
41592;DHT22;28026;48.562;14.440;2023-08-24T04:45:57;18.30;99.90
41592;DHT22;28026;48.562;14.440;2023-08-24T04:48:28;18.30;99.90
41592;DHT22;28026;48.562;14.440;2023-08-24T04:51:05;18.40;99.90
41592;DHT22;28026;48.562;14.440;2023-08-24T04:53:36;18.30;99.90
41592;DHT22;28026;48.562;14.440;2023-08-24T04:56:07;18.30;99.90
41592;DHT22;28026;48.562;14.440;2023-08-24T04:58:37;18.30;99.90
41592;DHT22;28026;48.562;14.440;2023-08-24T05:01:08;18.40;99.90
41592;DHT22;28026;48.562;14.440;2023-08-24T05:03:39;18.50;99.90
41592;DHT22;28026;48.562;14.440;2023-08-24T05:06:10;18.70;99.90
41592;DHT22;28026;48.562;14.440;2023-08-24T05:08:41;18.80;99.90
41592;DHT22;28026;48.562;14.440;2023-08-24T05:11:13;18.80;99.90
41592;DHT22;28026;48.562;14.440;2023-08-24T05:13:47;18.90;99.90
41592;DHT22;28026;48.562;14.440;2023-08-24T05:16:18;19.00;99.90
41592;DHT22;28026;48.562;14.440;2023-08-24T05:18:48;19.20;99.90
41592;DHT22;28026;48.562;14.440;2023-08-24T05:21:19;19.40;99.90
41592;DHT22;28026;48.562;14.440;2023-08-24T05:23:50;19.40;99.90
41592;DHT22;28026;48.562;14.440;2023-08-24T05:26:21;19.40;99.90
41592;DHT22;28026;48.562;14.440;2023-08-24T05:28:55;19.30;99.90
41592;DHT22;28026;48.562;14.440;2023-08-24T05:31:26;19.50;99.90
41592;DHT22;28026;48.562;14.440;2023-08-24T05:33:56;19.60;99.90
41592;DHT22;28026;48.562;14.440;2023-08-24T05:36:27;19.80;99.90
41592;DHT22;28026;48.562;14.440;2023-08-24T05:38:58;20.10;99.90
41592;DHT22;28026;48.562;14.440;2023-08-24T05:41:29;20.20;99.90
41592;DHT22;28026;48.562;14.440;2023-08-24T05:44:00;20.40;99.90
41592;DHT22;28026;48.562;14.440;2023-08-24T05:46:31;20.50;99.90
41592;DHT22;28026;48.562;14.440;2023-08-24T05:49:02;20.50;99.90
41592;DHT22;28026;48.562;14.440;2023-08-24T05:51:33;20.60;99.90
41592;DHT22;28026;48.562;14.440;2023-08-24T05:54:04;20.70;99.90
41592;DHT22;28026;48.562;14.440;2023-08-24T05:56:35;20.80;99.90
41592;DHT22;28026;48.562;14.440;2023-08-24T05:59:06;20.90;99.90
41592;DHT22;28026;48.562;14.440;2023-08-24T06:01:38;20.90;99.90
41592;DHT22;28026;48.562;14.440;2023-08-24T06:04:09;21.10;99.90
41592;DHT22;28026;48.562;14.440;2023-08-24T06:06:40;21.20;99.90
41592;DHT22;28026;48.562;14.440;2023-08-24T06:09:11;21.40;99.90
41592;DHT22;28026;48.562;14.440;2023-08-24T06:11:42;21.70;99.90
41592;DHT22;28026;48.562;14.440;2023-08-24T06:14:13;22.00;99.90
41592;DHT22;28026;48.562;14.440;2023-08-24T06:16:44;21.90;99.90
41592;DHT22;28026;48.562;14.440;2023-08-24T06:19:15;22.10;99.90
41592;DHT22;28026;48.562;14.440;2023-08-24T06:21:46;22.20;99.90
41592;DHT22;28026;48.562;14.440;2023-08-24T06:24:17;21.60;99.90
41592;DHT22;28026;48.562;14.440;2023-08-24T06:26:47;21.90;99.90
41592;DHT22;28026;48.562;14.440;2023-08-24T06:29:18;22.30;99.90
41592;DHT22;28026;48.562;14.440;2023-08-24T06:31:49;22.80;99.90
41592;DHT22;28026;48.562;14.440;2023-08-24T06:34:20;23.30;99.90
41592;DHT22;28026;48.562;14.440;2023-08-24T06:36:53;23.60;99.90
41592;DHT22;28026;48.562;14.440;2023-08-24T06:39:24;24.10;99.90
41592;DHT22;28026;48.562;14.440;2023-08-24T06:41:55;24.10;99.90
41592;DHT22;28026;48.562;14.440;2023-08-24T06:44:26;23.70;99.90
41592;DHT22;28026;48.562;14.440;2023-08-24T06:46:57;23.50;99.90
41592;DHT22;28026;48.562;14.440;2023-08-24T06:49:27;24.00;99.90
41592;DHT22;28026;48.562;14.440;2023-08-24T06:51:58;24.10;99.90
41592;DHT22;28026;48.562;14.440;2023-08-24T06:54:30;24.30;99.90
41592;DHT22;28026;48.562;14.440;2023-08-24T06:57:01;24.30;99.90
41592;DHT22;28026;48.562;14.440;2023-08-24T06:59:32;24.20;99.90
41592;DHT22;28026;48.562;14.440;2023-08-24T07:02:03;24.30;99.90
41592;DHT22;28026;48.562;14.440;2023-08-24T07:04:34;23.50;99.90
41592;DHT22;28026;48.562;14.440;2023-08-24T07:07:07;23.60;99.90
41592;DHT22;28026;48.562;14.440;2023-08-24T07:09:38;23.90;99.90
41592;DHT22;28026;48.562;14.440;2023-08-24T07:12:09;23.80;99.90
41592;DHT22;28026;48.562;14.440;2023-08-24T07:14:40;24.20;99.90
41592;DHT22;28026;48.562;14.440;2023-08-24T07:17:11;24.00;99.90
41592;DHT22;28026;48.562;14.440;2023-08-24T07:19:42;23.80;99.90
41592;DHT22;28026;48.562;14.440;2023-08-24T07:22:13;23.50;99.90
41592;DHT22;28026;48.562;14.440;2023-08-24T07:24:45;23.50;99.90
41592;DHT22;28026;48.562;14.440;2023-08-24T07:27:16;23.60;99.90
41592;DHT22;28026;48.562;14.440;2023-08-24T07:29:47;24.00;99.90
41592;DHT22;28026;48.562;14.440;2023-08-24T07:32:18;24.10;99.90
41592;DHT22;28026;48.562;14.440;2023-08-24T07:34:50;24.20;99.90
41592;DHT22;28026;48.562;14.440;2023-08-24T07:37:20;24.40;99.90
41592;DHT22;28026;48.562;14.440;2023-08-24T07:39:51;24.30;99.90
41592;DHT22;28026;48.562;14.440;2023-08-24T07:42:22;24.40;99.90
41592;DHT22;28026;48.562;14.440;2023-08-24T07:44:53;24.20;99.90
41592;DHT22;28026;48.562;14.440;2023-08-24T07:47:24;23.80;99.90
41592;DHT22;28026;48.562;14.440;2023-08-24T07:49:55;24.00;99.90
41592;DHT22;28026;48.562;14.440;2023-08-24T07:52:26;24.20;99.90
41592;DHT22;28026;48.562;14.440;2023-08-24T07:54:59;24.40;99.90
41592;DHT22;28026;48.562;14.440;2023-08-24T07:57:30;24.20;99.90
41592;DHT22;28026;48.562;14.440;2023-08-24T08:00:05;24.20;99.90
41592;DHT22;28026;48.562;14.440;2023-08-24T08:02:38;24.20;99.90
41592;DHT22;28026;48.562;14.440;2023-08-24T08:05:09;23.90;99.90
41592;DHT22;28026;48.562;14.440;2023-08-24T08:07:43;24.30;99.90
41592;DHT22;28026;48.562;14.440;2023-08-24T08:10:14;24.80;99.90
41592;DHT22;28026;48.562;14.440;2023-08-24T08:12:47;25.40;99.90
41592;DHT22;28026;48.562;14.440;2023-08-24T08:15:18;25.50;99.90
41592;DHT22;28026;48.562;14.440;2023-08-24T08:17:49;25.50;99.90
41592;DHT22;28026;48.562;14.440;2023-08-24T08:20:21;25.80;99.90
41592;DHT22;28026;48.562;14.440;2023-08-24T08:22:52;25.90;99.90
41592;DHT22;28026;48.562;14.440;2023-08-24T08:25:23;26.70;99.90
41592;DHT22;28026;48.562;14.440;2023-08-24T08:27:53;26.10;99.90
41592;DHT22;28026;48.562;14.440;2023-08-24T08:30:24;26.20;99.90
41592;DHT22;28026;48.562;14.440;2023-08-24T08:32:55;26.20;99.90
41592;DHT22;28026;48.562;14.440;2023-08-24T08:35:26;26.20;99.90
41592;DHT22;28026;48.562;14.440;2023-08-24T08:37:57;27.10;99.90
41592;DHT22;28026;48.562;14.440;2023-08-24T08:40:30;27.20;99.90
41592;DHT22;28026;48.562;14.440;2023-08-24T08:43:01;27.80;99.90
41592;DHT22;28026;48.562;14.440;2023-08-24T08:45:32;27.70;99.90
41592;DHT22;28026;48.562;14.440;2023-08-24T08:48:04;27.90;99.90
41592;DHT22;28026;48.562;14.440;2023-08-24T08:50:37;28.40;99.90
41592;DHT22;28026;48.562;14.440;2023-08-24T08:53:08;27.40;99.90
41592;DHT22;28026;48.562;14.440;2023-08-24T08:55:39;27.40;99.90
41592;DHT22;28026;48.562;14.440;2023-08-24T08:58:10;27.50;99.90
41592;DHT22;28026;48.562;14.440;2023-08-24T09:00:42;27.90;99.90
41592;DHT22;28026;48.562;14.440;2023-08-24T09:03:15;28.60;99.90
41592;DHT22;28026;48.562;14.440;2023-08-24T09:05:49;28.80;99.90
41592;DHT22;28026;48.562;14.440;2023-08-24T09:08:20;29.00;99.90
41592;DHT22;28026;48.562;14.440;2023-08-24T09:10:52;28.90;99.90
41592;DHT22;28026;48.562;14.440;2023-08-24T09:13:23;28.90;99.90
41592;DHT22;28026;48.562;14.440;2023-08-24T09:15:54;28.70;99.90
41592;DHT22;28026;48.562;14.440;2023-08-24T09:18:39;28.30;99.90
41592;DHT22;28026;48.562;14.440;2023-08-24T09:21:15;28.30;99.90
41592;DHT22;28026;48.562;14.440;2023-08-24T09:23:54;28.90;99.90
41592;DHT22;28026;48.562;14.440;2023-08-24T09:26:34;28.20;99.90
41592;DHT22;28026;48.562;14.440;2023-08-24T09:29:14;28.30;99.90
41592;DHT22;28026;48.562;14.440;2023-08-24T09:31:46;28.50;99.90
41592;DHT22;28026;48.562;14.440;2023-08-24T09:34:22;28.60;99.90
41592;DHT22;28026;48.562;14.440;2023-08-24T09:36:57;28.80;99.90
41592;DHT22;28026;48.562;14.440;2023-08-24T09:39:28;28.50;99.90
41592;DHT22;28026;48.562;14.440;2023-08-24T09:42:00;29.10;99.90
41592;DHT22;28026;48.562;14.440;2023-08-24T09:44:35;29.20;99.90
41592;DHT22;28026;48.562;14.440;2023-08-24T09:47:09;28.90;99.90
41592;DHT22;28026;48.562;14.440;2023-08-24T09:49:41;28.70;99.90
41592;DHT22;28026;48.562;14.440;2023-08-24T09:52:13;29.20;99.90
41592;DHT22;28026;48.562;14.440;2023-08-24T09:54:45;29.70;99.90
41592;DHT22;28026;48.562;14.440;2023-08-24T09:57:16;29.40;99.90
41592;DHT22;28026;48.562;14.440;2023-08-24T09:59:49;29.00;99.90
41592;DHT22;28026;48.562;14.440;2023-08-24T10:02:23;29.90;99.90
41592;DHT22;28026;48.562;14.440;2023-08-24T10:05:02;30.50;99.90
41592;DHT22;28026;48.562;14.440;2023-08-24T10:07:36;30.60;99.90
41592;DHT22;28026;48.562;14.440;2023-08-24T10:10:10;31.20;99.90
41592;DHT22;28026;48.562;14.440;2023-08-24T10:12:47;29.00;99.90
41592;DHT22;28026;48.562;14.440;2023-08-24T10:15:23;29.30;99.90
41592;DHT22;28026;48.562;14.440;2023-08-24T10:17:56;29.70;99.90
41592;DHT22;28026;48.562;14.440;2023-08-24T10:20:30;30.10;99.90
41592;DHT22;28026;48.562;14.440;2023-08-24T10:23:02;30.10;99.90
41592;DHT22;28026;48.562;14.440;2023-08-24T10:25:33;30.70;99.90
41592;DHT22;28026;48.562;14.440;2023-08-24T10:28:07;30.80;99.90
41592;DHT22;28026;48.562;14.440;2023-08-24T10:30:38;31.30;99.90
41592;DHT22;28026;48.562;14.440;2023-08-24T10:33:11;32.10;99.90
41592;DHT22;28026;48.562;14.440;2023-08-24T10:35:44;32.20;99.90
41592;DHT22;28026;48.562;14.440;2023-08-24T10:38:30;32.00;99.90
41592;DHT22;28026;48.562;14.440;2023-08-24T10:41:03;30.70;99.90
41592;DHT22;28026;48.562;14.440;2023-08-24T10:43:37;31.20;99.90
41592;DHT22;28026;48.562;14.440;2023-08-24T10:46:13;31.50;99.90
41592;DHT22;28026;48.562;14.440;2023-08-24T10:51:18;31.20;99.90
41592;DHT22;28026;48.562;14.440;2023-08-24T10:54:00;31.20;99.90
41592;DHT22;28026;48.562;14.440;2023-08-24T10:56:39;31.20;99.90
41592;DHT22;28026;48.562;14.440;2023-08-24T11:04:25;32.30;99.90
41592;DHT22;28026;48.562;14.440;2023-08-24T11:07:00;32.70;99.90
41592;DHT22;28026;48.562;14.440;2023-08-24T11:09:46;31.40;99.90
41592;DHT22;28026;48.562;14.440;2023-08-24T11:12:18;31.70;99.90
41592;DHT22;28026;48.562;14.440;2023-08-24T11:14:50;31.00;99.90
41592;DHT22;28026;48.562;14.440;2023-08-24T11:17:32;31.70;99.90
41592;DHT22;28026;48.562;14.440;2023-08-24T11:20:03;31.90;99.90
41592;DHT22;28026;48.562;14.440;2023-08-24T11:22:35;31.40;99.90
41592;DHT22;28026;48.562;14.440;2023-08-24T11:25:11;31.20;99.90
41592;DHT22;28026;48.562;14.440;2023-08-24T11:27:45;30.70;99.90
41592;DHT22;28026;48.562;14.440;2023-08-24T11:30:16;31.00;99.90
41592;DHT22;28026;48.562;14.440;2023-08-24T11:32:52;31.00;99.90
41592;DHT22;28026;48.562;14.440;2023-08-24T11:35:24;31.00;99.90
41592;DHT22;28026;48.562;14.440;2023-08-24T11:37:56;31.20;99.90
41592;DHT22;28026;48.562;14.440;2023-08-24T11:40:27;31.40;99.90
41592;DHT22;28026;48.562;14.440;2023-08-24T11:42:58;31.20;99.90
41592;DHT22;28026;48.562;14.440;2023-08-24T11:45:35;31.50;99.90
41592;DHT22;28026;48.562;14.440;2023-08-24T11:48:08;30.10;99.90
41592;DHT22;28026;48.562;14.440;2023-08-24T11:50:40;29.50;99.90
41592;DHT22;28026;48.562;14.440;2023-08-24T11:53:11;29.60;99.90
41592;DHT22;28026;48.562;14.440;2023-08-24T11:55:42;29.80;99.90
41592;DHT22;28026;48.562;14.440;2023-08-24T11:58:16;30.70;99.90
41592;DHT22;28026;48.562;14.440;2023-08-24T12:00:47;31.30;99.90
41592;DHT22;28026;48.562;14.440;2023-08-24T12:03:18;31.80;99.90
41592;DHT22;28026;48.562;14.440;2023-08-24T12:05:49;31.70;99.90
41592;DHT22;28026;48.562;14.440;2023-08-24T12:08:20;32.00;99.90
41592;DHT22;28026;48.562;14.440;2023-08-24T12:10:52;32.10;99.90
41592;DHT22;28026;48.562;14.440;2023-08-24T12:13:23;31.40;99.90
41592;DHT22;28026;48.562;14.440;2023-08-24T12:15:53;32.10;99.90
41592;DHT22;28026;48.562;14.440;2023-08-24T12:18:26;32.10;99.90
41592;DHT22;28026;48.562;14.440;2023-08-24T12:21:00;31.40;99.90
41592;DHT22;28026;48.562;14.440;2023-08-24T12:23:31;31.60;99.90
41592;DHT22;28026;48.562;14.440;2023-08-24T12:26:02;32.60;99.90
41592;DHT22;28026;48.562;14.440;2023-08-24T12:28:32;33.10;99.90
41592;DHT22;28026;48.562;14.440;2023-08-24T12:31:04;32.10;99.90
41592;DHT22;28026;48.562;14.440;2023-08-24T12:33:35;30.70;99.90
41592;DHT22;28026;48.562;14.440;2023-08-24T12:36:06;31.40;99.90
41592;DHT22;28026;48.562;14.440;2023-08-24T12:38:37;31.60;99.90
41592;DHT22;28026;48.562;14.440;2023-08-24T12:41:09;31.50;99.90
41592;DHT22;28026;48.562;14.440;2023-08-24T12:43:40;30.00;99.90
41592;DHT22;28026;48.562;14.440;2023-08-24T12:46:10;29.40;99.90
41592;DHT22;28026;48.562;14.440;2023-08-24T12:48:41;29.80;99.90
41592;DHT22;28026;48.562;14.440;2023-08-24T12:51:12;30.90;99.90
41592;DHT22;28026;48.562;14.440;2023-08-24T12:53:43;31.90;99.90
41592;DHT22;28026;48.562;14.440;2023-08-24T12:56:14;32.70;99.90
41592;DHT22;28026;48.562;14.440;2023-08-24T12:58:45;32.50;99.90
41592;DHT22;28026;48.562;14.440;2023-08-24T13:01:16;31.80;99.90
41592;DHT22;28026;48.562;14.440;2023-08-24T13:03:47;32.10;99.90
41592;DHT22;28026;48.562;14.440;2023-08-24T13:06:18;32.40;99.90
41592;DHT22;28026;48.562;14.440;2023-08-24T13:08:49;33.00;99.90
41592;DHT22;28026;48.562;14.440;2023-08-24T13:11:21;33.30;99.90
41592;DHT22;28026;48.562;14.440;2023-08-24T13:13:53;34.10;99.90
41592;DHT22;28026;48.562;14.440;2023-08-24T13:16:24;34.50;99.90
41592;DHT22;28026;48.562;14.440;2023-08-24T13:18:55;32.90;99.90
41592;DHT22;28026;48.562;14.440;2023-08-24T13:21:26;30.80;99.90
41592;DHT22;28026;48.562;14.440;2023-08-24T13:23:57;30.10;99.90
41592;DHT22;28026;48.562;14.440;2023-08-24T13:26:28;29.90;99.90
41592;DHT22;28026;48.562;14.440;2023-08-24T13:28:58;29.80;99.90
41592;DHT22;28026;48.562;14.440;2023-08-24T13:31:31;31.20;99.90
41592;DHT22;28026;48.562;14.440;2023-08-24T13:34:02;32.50;99.90
41592;DHT22;28026;48.562;14.440;2023-08-24T13:36:35;32.90;99.90
41592;DHT22;28026;48.562;14.440;2023-08-24T13:39:05;33.50;99.90
41592;DHT22;28026;48.562;14.440;2023-08-24T13:41:37;32.40;99.90
41592;DHT22;28026;48.562;14.440;2023-08-24T13:44:08;30.80;99.90
41592;DHT22;28026;48.562;14.440;2023-08-24T13:46:39;30.70;99.90
41592;DHT22;28026;48.562;14.440;2023-08-24T13:49:10;31.40;99.90
41592;DHT22;28026;48.562;14.440;2023-08-24T13:51:41;31.00;99.90
41592;DHT22;28026;48.562;14.440;2023-08-24T13:54:16;31.90;99.90
41592;DHT22;28026;48.562;14.440;2023-08-24T13:56:49;32.00;99.90
41592;DHT22;28026;48.562;14.440;2023-08-24T13:59:20;32.60;99.90
41592;DHT22;28026;48.562;14.440;2023-08-24T14:01:51;31.80;99.90
41592;DHT22;28026;48.562;14.440;2023-08-24T14:04:22;32.50;99.90
41592;DHT22;28026;48.562;14.440;2023-08-24T14:06:53;31.60;99.90
41592;DHT22;28026;48.562;14.440;2023-08-24T14:09:24;31.50;99.90
41592;DHT22;28026;48.562;14.440;2023-08-24T14:11:56;30.90;99.90
41592;DHT22;28026;48.562;14.440;2023-08-24T14:14:27;30.40;99.90
41592;DHT22;28026;48.562;14.440;2023-08-24T14:16:58;31.00;99.90
41592;DHT22;28026;48.562;14.440;2023-08-24T14:19:28;31.90;99.90
41592;DHT22;28026;48.562;14.440;2023-08-24T14:21:59;32.30;99.90
41592;DHT22;28026;48.562;14.440;2023-08-24T14:24:30;32.60;99.90
41592;DHT22;28026;48.562;14.440;2023-08-24T14:27:01;33.20;99.10
41592;DHT22;28026;48.562;14.440;2023-08-24T14:29:32;33.60;99.00
41592;DHT22;28026;48.562;14.440;2023-08-24T14:32:03;33.70;99.30
41592;DHT22;28026;48.562;14.440;2023-08-24T14:34:34;33.50;99.00
41592;DHT22;28026;48.562;14.440;2023-08-24T14:37:05;33.30;98.90
41592;DHT22;28026;48.562;14.440;2023-08-24T14:39:36;33.70;99.30
41592;DHT22;28026;48.562;14.440;2023-08-24T14:42:07;34.30;98.70
41592;DHT22;28026;48.562;14.440;2023-08-24T14:44:38;34.40;98.40
41592;DHT22;28026;48.562;14.440;2023-08-24T14:47:09;34.00;98.30
41592;DHT22;28026;48.562;14.440;2023-08-24T14:49:39;33.40;98.70
41592;DHT22;28026;48.562;14.440;2023-08-24T14:52:10;33.40;99.00
41592;DHT22;28026;48.562;14.440;2023-08-24T14:54:41;32.80;99.40
41592;DHT22;28026;48.562;14.440;2023-08-24T14:57:12;33.00;99.10
41592;DHT22;28026;48.562;14.440;2023-08-24T14:59:44;33.10;98.40
41592;DHT22;28026;48.562;14.440;2023-08-24T15:02:15;32.90;98.80
41592;DHT22;28026;48.562;14.440;2023-08-24T15:04:46;33.20;96.90
41592;DHT22;28026;48.562;14.440;2023-08-24T15:07:17;33.70;96.40
41592;DHT22;28026;48.562;14.440;2023-08-24T15:09:48;34.20;96.70
41592;DHT22;28026;48.562;14.440;2023-08-24T15:12:19;33.60;96.60
41592;DHT22;28026;48.562;14.440;2023-08-24T15:14:59;33.30;96.20
41592;DHT22;28026;48.562;14.440;2023-08-24T15:17:33;33.30;96.80
41592;DHT22;28026;48.562;14.440;2023-08-24T15:20:04;32.80;96.90
41592;DHT22;28026;48.562;14.440;2023-08-24T15:22:36;32.40;96.70
41592;DHT22;28026;48.562;14.440;2023-08-24T15:25:07;32.60;96.80
41592;DHT22;28026;48.562;14.440;2023-08-24T15:27:39;33.00;96.10
41592;DHT22;28026;48.562;14.440;2023-08-24T15:30:10;33.10;96.40
41592;DHT22;28026;48.562;14.440;2023-08-24T15:32:41;32.30;96.80
41592;DHT22;28026;48.562;14.440;2023-08-24T15:35:12;32.10;96.60
41592;DHT22;28026;48.562;14.440;2023-08-24T15:37:43;32.20;96.70
41592;DHT22;28026;48.562;14.440;2023-08-24T15:40:14;31.80;96.50
41592;DHT22;28026;48.562;14.440;2023-08-24T15:42:45;31.50;96.80
41592;DHT22;28026;48.562;14.440;2023-08-24T15:45:17;31.50;96.30
41592;DHT22;28026;48.562;14.440;2023-08-24T15:47:48;31.60;96.40
41592;DHT22;28026;48.562;14.440;2023-08-24T15:50:19;32.00;96.00
41592;DHT22;28026;48.562;14.440;2023-08-24T15:52:50;31.80;96.90
41592;DHT22;28026;48.562;14.440;2023-08-24T15:55:22;32.00;96.80
41592;DHT22;28026;48.562;14.440;2023-08-24T15:57:53;31.50;95.50
41592;DHT22;28026;48.562;14.440;2023-08-24T16:00:24;31.70;96.10